Time;durP1;ratioP1;P1;durP2;ratioP2;P2;SDS_P1;SDS_P2;PMS_P1;PMS_P2;Temp;Humidity;BMP_temperature;BMP_pressure;BME280_temperature;BME280_humidity;BME280_pressure;Samples;Min_cycle;Max_cycle;Signal;HPM_P1;HPM_P2
2022/10/13 00:00:22;;;;;;;17.30;8.93;;;11.40;99.90;;;;;;5067204;23;20158;-69
2022/10/13 00:02:23;;;;;;;16.57;9.10;;;11.40;99.90;;;;;;5067981;23;20155;-69
2022/10/13 00:04:23;;;;;;;18.53;8.97;;;11.40;99.90;;;;;;5067921;23;20166;-68
2022/10/13 00:06:26;;;;;;;18.47;10.47;;;11.40;99.90;;;;;;5068093;23;20173;-68
2022/10/13 00:08:26;;;;;;;15.53;8.13;;;11.30;99.90;;;;;;5068353;23;20699;-68
2022/10/13 00:10:27;;;;;;;19.00;9.60;;;11.30;99.90;;;;;;5067038;23;20166;-68
2022/10/13 00:12:27;;;;;;;15.20;8.10;;;11.30;99.90;;;;;;5067944;23;20520;-68
2022/10/13 00:14:28;;;;;;;16.63;8.93;;;11.30;99.90;;;;;;5067610;23;20182;-68
2022/10/13 00:16:30;;;;;;;19.80;9.57;;;11.40;99.90;;;;;;5067779;23;20246;-67
2022/10/13 00:18:30;;;;;;;20.77;10.03;;;11.50;99.90;;;;;;5067635;23;20171;-67
2022/10/13 00:20:31;;;;;;;15.37;9.10;;;11.50;99.90;;;;;;5066895;23;20165;-67
2022/10/13 00:22:32;;;;;;;15.23;8.73;;;11.60;99.90;;;;;;5067521;23;20552;-67
2022/10/13 00:24:32;;;;;;;16.67;9.40;;;11.60;99.90;;;;;;5041866;23;20163;-67
2022/10/13 00:26:33;;;;;;;16.27;8.70;;;11.40;99.90;;;;;;5067286;23;20170;-67
2022/10/13 00:28:33;;;;;;;16.00;8.97;;;11.50;99.90;;;;;;5067492;23;20159;-67
2022/10/13 00:30:35;;;;;;;16.50;8.87;;;11.50;99.90;;;;;;5066927;23;20162;-67
2022/10/13 00:32:36;;;;;;;17.90;9.07;;;11.50;99.90;;;;;;5067748;23;20620;-67
2022/10/13 00:34:37;;;;;;;21.40;8.27;;;11.50;99.90;;;;;;5067419;23;20209;-67
2022/10/13 00:36:37;;;;;;;15.53;8.73;;;11.50;99.90;;;;;;5067567;23;20242;-68
2022/10/13 00:38:38;;;;;;;15.80;7.80;;;11.50;99.90;;;;;;5067575;23;20643;-67
2022/10/13 00:40:52;;;;;;;15.70;8.40;;;11.60;99.90;;;;;;5040985;23;20577;-67
2022/10/13 00:42:53;;;;;;;13.53;7.50;;;11.60;99.90;;;;;;5067519;23;20222;-67
2022/10/13 00:45:26;;;;;;;20.10;8.97;;;11.60;99.90;;;;;;5067610;23;20249;-67
2022/10/13 00:47:37;;;;;;;15.30;7.80;;;11.70;99.90;;;;;;5041667;23;20158;-66
2022/10/13 00:49:37;;;;;;;16.90;9.07;;;11.60;99.90;;;;;;5067264;23;20143;-67
2022/10/13 00:51:42;;;;;;;17.53;7.57;;;11.60;99.90;;;;;;5066665;23;20489;-67
2022/10/13 00:53:44;;;;;;;15.23;9.40;;;11.60;99.90;;;;;;5067351;23;20178;-67
2022/10/13 00:55:46;;;;;;;14.20;8.17;;;11.60;99.90;;;;;;5067648;23;20189;-66
2022/10/13 00:57:53;;;;;;;15.67;8.03;;;11.50;99.90;;;;;;5067400;23;20158;-67
2022/10/13 00:59:54;;;;;;;16.27;9.50;;;11.70;99.90;;;;;;5067648;23;20142;-67
2022/10/13 01:01:57;;;;;;;12.33;8.13;;;11.70;99.90;;;;;;5066533;23;20614;-67
2022/10/13 01:03:58;;;;;;;16.47;8.53;;;11.70;99.90;;;;;;5067448;23;20196;-67
2022/10/13 01:06:02;;;;;;;18.80;7.57;;;11.60;99.90;;;;;;5067420;23;20186;-67
2022/10/13 01:08:04;;;;;;;14.17;7.43;;;11.60;99.90;;;;;;5067466;23;20626;-67
2022/10/13 01:10:05;;;;;;;13.27;7.70;;;11.50;99.90;;;;;;5041302;23;20262;-67
2022/10/13 01:12:28;;;;;;;15.60;7.83;;;11.50;99.90;;;;;;5066482;23;20163;-67
2022/10/13 01:14:41;;;;;;;14.83;7.53;;;11.50;99.90;;;;;;5066947;23;20257;-67
2022/10/13 01:17:04;;;;;;;15.80;8.67;;;11.40;99.90;;;;;;5067195;23;20153;-67
2022/10/13 01:19:38;;;;;;;17.53;8.67;;;11.40;99.90;;;;;;5067540;23;20147;-67
2022/10/13 01:21:46;;;;;;;21.30;8.33;;;11.40;99.90;;;;;;5066235;23;20636;-67
2022/10/13 01:24:10;;;;;;;12.67;7.77;;;11.40;99.90;;;;;;5067089;23;20600;-67
2022/10/13 01:26:40;;;;;;;14.90;8.23;;;11.40;99.90;;;;;;5067378;23;20261;-67
2022/10/13 01:29:06;;;;;;;14.57;7.70;;;11.40;99.90;;;;;;5063510;23;20174;-66
2022/10/13 01:31:18;;;;;;;18.07;8.50;;;11.40;99.90;;;;;;5066274;23;20151;-66
2022/10/13 01:33:57;;;;;;;14.13;7.67;;;11.40;99.90;;;;;;5066404;23;20245;-66
2022/10/13 01:36:24;;;;;;;17.23;8.57;;;11.40;99.90;;;;;;5002664;23;20213;-66
2022/10/13 01:38:39;;;;;;;16.63;9.10;;;11.40;99.90;;;;;;5067147;23;20155;-66
2022/10/13 01:40:45;;;;;;;16.30;8.60;;;11.40;99.90;;;;;;5066372;23;20150;-66
2022/10/13 01:42:57;;;;;;;16.07;8.20;;;11.40;99.90;;;;;;5066990;23;20208;-67
2022/10/13 01:45:00;;;;;;;17.23;8.83;;;11.40;99.90;;;;;;5066711;23;20225;-67
2022/10/13 01:47:02;;;;;;;13.87;7.90;;;11.30;99.90;;;;;;5067102;23;20158;-66
2022/10/13 01:49:08;;;;;;;15.60;7.60;;;11.30;99.90;;;;;;5066832;23;20162;-66
2022/10/13 01:51:16;;;;;;;13.83;7.67;;;11.20;99.90;;;;;;5066351;23;20161;-67
2022/10/13 01:53:18;;;;;;;18.07;8.60;;;11.10;99.90;;;;;;5066942;23;20212;-68
2022/10/13 01:55:19;;;;;;;12.67;7.00;;;11.10;99.90;;;;;;5067016;23;20701;-68
2022/10/13 01:57:31;;;;;;;18.77;8.87;;;11.00;99.90;;;;;;5067177;23;20158;-68
2022/10/13 01:59:35;;;;;;;15.27;7.93;;;11.00;99.90;;;;;;5066742;23;20539;-68
2022/10/13 02:01:59;;;;;;;15.63;7.70;;;11.10;99.90;;;;;;5066070;23;20237;-67
2022/10/13 02:04:23;;;;;;;17.77;8.13;;;10.90;99.90;;;;;;5065834;23;20185;-68
2022/10/13 02:06:31;;;;;;;15.47;8.40;;;11.00;99.90;;;;;;5066529;23;20170;-68
2022/10/13 02:08:55;;;;;;;15.97;8.47;;;11.00;99.90;;;;;;5066725;23;20491;-68
2022/10/13 02:11:01;;;;;;;19.43;9.03;;;11.00;99.90;;;;;;5040386;23;20175;-68
2022/10/13 02:13:04;;;;;;;14.13;8.03;;;11.10;99.90;;;;;;5066741;23;20150;-68
2022/10/13 02:15:08;;;;;;;17.20;8.63;;;11.10;99.90;;;;;;5066644;23;20543;-67
2022/10/13 02:17:10;;;;;;;17.20;8.10;;;11.10;99.90;;;;;;5066873;23;20197;-67
2022/10/13 02:19:14;;;;;;;18.93;8.57;;;11.10;99.90;;;;;;5041127;23;20174;-68
2022/10/13 02:21:16;;;;;;;14.77;8.10;;;11.00;99.90;;;;;;5065258;23;20162;-68
2022/10/13 02:23:17;;;;;;;13.90;7.63;;;11.10;99.90;;;;;;5066796;23;20166;-68
2022/10/13 02:25:18;;;;;;;16.17;8.73;;;11.00;99.90;;;;;;5067144;23;20694;-68
2022/10/13 02:27:19;;;;;;;16.50;7.93;;;11.00;99.90;;;;;;5066441;23;20182;-68
2022/10/13 02:29:20;;;;;;;19.53;9.70;;;11.00;99.90;;;;;;5066613;23;20230;-67
2022/10/13 02:31:20;;;;;;;13.87;7.43;;;10.90;99.90;;;;;;5065847;23;20169;-67
2022/10/13 02:33:21;;;;;;;12.40;7.93;;;10.90;99.90;;;;;;5066516;23;20201;-68
2022/10/13 02:35:22;;;;;;;10.97;6.97;;;10.90;99.90;;;;;;5066954;23;20210;-67
2022/10/13 02:37:24;;;;;;;13.07;7.53;;;10.90;99.90;;;;;;5066649;23;20161;-69
2022/10/13 02:39:25;;;;;;;17.17;8.40;;;10.90;99.90;;;;;;5067079;23;20923;-68
2022/10/13 02:41:25;;;;;;;15.50;7.93;;;10.80;99.90;;;;;;5066067;23;20162;-67
2022/10/13 02:43:26;;;;;;;15.13;7.67;;;10.80;99.90;;;;;;5066652;23;20173;-68
2022/10/13 02:45:26;;;;;;;17.00;7.60;;;10.80;99.90;;;;;;5066419;23;20182;-68
2022/10/13 02:47:27;;;;;;;16.07;8.47;;;10.90;99.90;;;;;;5066601;23;20162;-67
2022/10/13 02:49:27;;;;;;;14.50;7.60;;;10.80;99.90;;;;;;5066505;23;20177;-68
2022/10/13 02:51:28;;;;;;;13.63;6.87;;;10.60;99.90;;;;;;5065945;23;20531;-66
2022/10/13 02:53:28;;;;;;;21.23;7.73;;;10.60;99.90;;;;;;5066519;23;20524;-68
2022/10/13 02:55:29;;;;;;;12.90;7.70;;;10.60;99.90;;;;;;5066787;23;20181;-69
2022/10/13 02:57:30;;;;;;;15.53;7.53;;;10.40;99.90;;;;;;5066908;23;20169;-69
2022/10/13 02:59:30;;;;;;;14.60;8.30;;;10.30;99.90;;;;;;5040768;23;20166;-69
2022/10/13 03:01:31;;;;;;;11.47;6.77;;;10.30;99.90;;;;;;5065847;23;20238;-68
2022/10/13 03:03:32;;;;;;;20.37;8.40;;;10.30;99.90;;;;;;5067100;23;20173;-66
2022/10/13 03:05:32;;;;;;;26.00;10.60;;;10.30;99.90;;;;;;5066733;23;20186;-68
2022/10/13 03:07:33;;;;;;;27.50;10.03;;;10.30;99.90;;;;;;5066599;23;20174;-69
2022/10/13 03:09:33;;;;;;;46.20;12.77;;;10.30;99.90;;;;;;5066680;23;20158;-69
2022/10/13 03:11:34;;;;;;;28.17;10.10;;;10.20;99.90;;;;;;5065979;23;20177;-68
2022/10/13 03:13:36;;;;;;;69.93;13.43;;;10.20;99.90;;;;;;5040701;23;20203;-68
2022/10/13 03:15:36;;;;;;;16.53;9.07;;;10.30;99.90;;;;;;5067007;23;20182;-69
2022/10/13 03:17:37;;;;;;;52.63;11.83;;;10.20;99.90;;;;;;5040721;23;20177;-69
2022/10/13 03:19:37;;;;;;;108.37;15.80;;;10.20;99.90;;;;;;5066403;23;20166;-69
2022/10/13 03:21:38;;;;;;;96.13;13.40;;;10.30;99.90;;;;;;5065982;23;20162;-69
2022/10/13 03:23:39;;;;;;;71.93;11.67;;;10.20;99.90;;;;;;5066357;23;20174;-69
2022/10/13 03:25:39;;;;;;;55.13;10.73;;;10.20;99.90;;;;;;5066400;23;20256;-69
2022/10/13 03:27:40;;;;;;;74.20;12.03;;;10.10;99.90;;;;;;5066424;23;20668;-68
2022/10/13 03:29:41;;;;;;;91.03;14.37;;;10.10;99.90;;;;;;5066357;23;20501;-68
2022/10/13 03:31:42;;;;;;;72.07;13.67;;;10.20;99.90;;;;;;5065559;23;20505;-68
2022/10/13 03:33:43;;;;;;;132.27;14.17;;;10.20;99.90;;;;;;5066392;23;20197;-69
2022/10/13 03:35:43;;;;;;;57.07;10.90;;;10.20;99.90;;;;;;5066316;23;20189;-69
2022/10/13 03:37:44;;;;;;;53.83;10.50;;;10.10;99.90;;;;;;5066631;23;20664;-69
2022/10/13 03:39:44;;;;;;;105.10;14.10;;;10.10;99.90;;;;;;5066417;23;20155;-69
2022/10/13 03:41:45;;;;;;;86.53;13.33;;;10.20;99.90;;;;;;5066085;23;20165;-69
2022/10/13 03:43:45;;;;;;;89.67;15.40;;;10.20;99.90;;;;;;5066305;23;20198;-68
2022/10/13 03:46:00;;;;;;;173.10;16.37;;;10.10;99.90;;;;;;5040381;23;20676;-68
2022/10/13 03:48:01;;;;;;;61.93;11.23;;;10.20;99.90;;;;;;5066690;23;20562;-69
2022/10/13 03:50:03;;;;;;;72.47;12.03;;;10.20;99.90;;;;;;5066536;23;20163;-69
2022/10/13 03:52:04;;;;;;;128.20;14.57;;;10.20;99.90;;;;;;5065657;23;20186;-69
2022/10/13 03:54:05;;;;;;;69.63;11.97;;;10.20;99.90;;;;;;5040694;23;20605;-69
2022/10/13 03:56:06;;;;;;;35.70;11.27;;;10.20;99.90;;;;;;5066724;23;20186;-69
2022/10/13 03:58:07;;;;;;;84.87;13.70;;;10.10;99.90;;;;;;5067834;23;20163;-69
2022/10/13 04:00:09;;;;;;;36.20;10.77;;;10.30;99.90;;;;;;5067964;23;20172;-69
2022/10/13 04:02:10;;;;;;;133.63;17.20;;;10.30;99.90;;;;;;5067435;23;20435;-68
2022/10/13 04:04:11;;;;;;;45.80;11.13;;;10.30;99.90;;;;;;5067458;23;20620;-68
2022/10/13 04:06:12;;;;;;;64.00;12.00;;;10.20;99.90;;;;;;5068366;23;20186;-68
2022/10/13 04:08:13;;;;;;;80.43;13.90;;;10.20;99.90;;;;;;5067775;23;20250;-68
2022/10/13 04:10:13;;;;;;;49.83;11.90;;;10.20;99.90;;;;;;5066643;23;20550;-69
2022/10/13 04:12:14;;;;;;;50.93;13.70;;;10.20;99.90;;;;;;5067555;23;20254;-69
2022/10/13 04:14:14;;;;;;;79.57;14.07;;;10.20;99.90;;;;;;5066844;23;20762;-69
2022/10/13 04:16:26;;;;;;;55.50;11.83;;;10.20;99.90;;;;;;5068016;23;20178;-69
2022/10/13 04:18:26;;;;;;;63.67;10.93;;;10.00;99.90;;;;;;5067747;23;20720;-69
2022/10/13 04:20:27;;;;;;;87.73;11.13;;;10.00;99.90;;;;;;5067108;23;20158;-69
2022/10/13 04:22:28;;;;;;;64.57;12.33;;;9.90;99.90;;;;;;5041933;23;20217;-69
2022/10/13 04:24:28;;;;;;;40.77;9.27;;;10.00;99.90;;;;;;5067524;23;20549;-69
2022/10/13 04:26:31;;;;;;;112.00;13.40;;;10.00;99.90;;;;;;5065709;23;20604;-69
2022/10/13 04:28:34;;;;;;;60.40;12.50;;;10.00;99.90;;;;;;5067489;23;20170;-69
2022/10/13 04:30:35;;;;;;;88.90;12.63;;;10.00;99.90;;;;;;5066670;23;20166;-69
2022/10/13 04:32:36;;;;;;;112.50;17.37;;;10.00;99.90;;;;;;5067406;23;20234;-69
2022/10/13 04:34:36;;;;;;;74.10;11.20;;;10.10;99.90;;;;;;5067373;23;20253;-67
2022/10/13 04:36:37;;;;;;;65.50;12.27;;;10.20;99.90;;;;;;5067947;23;20561;-69
2022/10/13 04:38:38;;;;;;;37.47;10.70;;;10.30;99.90;;;;;;5067799;23;20612;-69
2022/10/13 04:40:38;;;;;;;43.53;12.20;;;10.30;99.90;;;;;;5067326;23;20166;-67
2022/10/13 04:42:39;;;;;;;37.87;10.97;;;10.30;99.90;;;;;;5067618;23;20166;-66
2022/10/13 04:44:39;;;;;;;65.63;12.10;;;10.30;99.90;;;;;;5042031;23;20727;-69
2022/10/13 04:46:40;;;;;;;183.17;18.10;;;10.30;99.90;;;;;;5067756;23;20167;-70
2022/10/13 04:48:41;;;;;;;78.60;12.23;;;10.20;99.90;;;;;;5067431;23;20168;-67
2022/10/13 04:50:41;;;;;;;70.63;12.53;;;10.20;99.90;;;;;;5066645;23;20597;-68
2022/10/13 04:52:42;;;;;;;47.17;11.17;;;10.10;99.90;;;;;;5041607;23;20171;-67
2022/10/13 04:54:43;;;;;;;88.03;14.57;;;10.10;99.90;;;;;;5067182;23;20248;-68
2022/10/13 04:56:44;;;;;;;51.83;11.60;;;9.90;99.90;;;;;;5067312;23;20158;-69
2022/10/13 04:58:45;;;;;;;40.10;10.37;;;9.90;99.90;;;;;;5067630;23;20508;-69
2022/10/13 05:00:46;;;;;;;35.23;10.13;;;9.90;99.90;;;;;;5067054;23;20162;-69
2022/10/13 05:02:47;;;;;;;101.47;10.73;;;9.90;99.90;;;;;;5067216;23;20234;-69
2022/10/13 05:04:47;;;;;;;79.60;11.93;;;10.00;99.90;;;;;;5067417;23;20240;-67
2022/10/13 05:06:48;;;;;;;51.80;12.23;;;9.80;99.90;;;;;;5067023;23;20166;-68
2022/10/13 05:08:49;;;;;;;51.17;10.63;;;9.80;99.90;;;;;;5040828;23;20177;-69
2022/10/13 05:11:00;;;;;;;58.17;12.20;;;9.70;99.90;;;;;;5066548;23;20178;-68
2022/10/13 05:13:01;;;;;;;65.83;11.67;;;9.60;99.90;;;;;;5041324;23;20656;-69
2022/10/13 05:15:02;;;;;;;59.70;11.43;;;9.70;99.90;;;;;;5041471;23;20189;-68
2022/10/13 05:17:03;;;;;;;47.43;14.97;;;9.90;99.90;;;;;;5067228;23;20163;-69
2022/10/13 05:19:03;;;;;;;62.43;12.93;;;9.80;99.90;;;;;;5066974;23;20162;-69
2022/10/13 05:21:21;;;;;;;33.43;11.53;;;9.80;99.90;;;;;;5066592;23;20159;-69
2022/10/13 05:23:22;;;;;;;28.60;10.00;;;9.70;99.90;;;;;;5067310;23;20844;-69
2022/10/13 05:25:22;;;;;;;65.77;14.00;;;9.90;99.90;;;;;;5067161;23;20190;-69
2022/10/13 05:27:23;;;;;;;32.97;12.67;;;9.90;99.90;;;;;;5067028;23;20608;-69
2022/10/13 05:29:23;;;;;;;35.00;11.07;;;9.90;99.90;;;;;;5067132;23;20158;-70
2022/10/13 05:31:25;;;;;;;42.57;11.33;;;9.70;99.90;;;;;;5066509;23;20189;-67
2022/10/13 05:33:26;;;;;;;56.20;12.57;;;9.60;99.90;;;;;;5066752;23;20202;-68
2022/10/13 05:35:27;;;;;;;76.23;16.63;;;9.50;99.90;;;;;;5066851;23;20183;-67
2022/10/13 05:37:27;;;;;;;66.67;14.67;;;9.40;99.90;;;;;;5067165;23;20169;-68
2022/10/13 05:39:28;;;;;;;47.80;11.63;;;9.30;99.90;;;;;;5067277;23;20167;-68
2022/10/13 05:41:29;;;;;;;27.20;10.40;;;9.00;99.90;;;;;;5066250;23;20170;-68
2022/10/13 05:43:31;;;;;;;36.13;9.60;;;9.00;99.90;;;;;;5066956;23;20162;-68
2022/10/13 05:45:32;;;;;;;54.40;11.93;;;9.00;99.90;;;;;;5067130;23;20556;-68
2022/10/13 05:47:33;;;;;;;70.07;11.03;;;9.00;99.90;;;;;;5066975;23;20184;-68
2022/10/13 05:49:35;;;;;;;96.10;12.20;;;9.10;99.90;;;;;;5066751;23;20188;-68
2022/10/13 05:51:43;;;;;;;71.50;13.53;;;9.10;99.90;;;;;;5066251;23;20166;-68
2022/10/13 05:53:49;;;;;;;31.00;9.17;;;9.00;99.90;;;;;;5066868;23;20185;-68
2022/10/13 05:55:52;;;;;;;33.83;9.73;;;9.20;99.90;;;;;;5041067;23;20198;-68
2022/10/13 05:57:53;;;;;;;37.37;11.37;;;9.10;99.90;;;;;;5067080;23;20598;-68
2022/10/13 06:00:04;;;;;;;101.17;14.63;;;9.10;99.90;;;;;;5066689;23;20245;-68
2022/10/13 06:02:08;;;;;;;60.53;12.30;;;9.10;99.90;;;;;;5065938;23;20174;-68
2022/10/13 06:04:19;;;;;;;55.07;16.90;;;9.10;99.90;;;;;;5066577;23;20218;-68
2022/10/13 06:06:20;;;;;;;35.27;10.17;;;9.20;99.90;;;;;;5066720;23;20154;-68
2022/10/13 06:08:21;;;;;;;31.13;11.43;;;9.20;99.90;;;;;;5066820;23;20158;-68
2022/10/13 06:10:22;;;;;;;61.77;11.33;;;9.30;99.90;;;;;;5066239;23;20166;-68
2022/10/13 06:12:23;;;;;;;21.77;8.70;;;9.30;99.90;;;;;;5066640;23;20185;-68
2022/10/13 06:14:23;;;;;;;25.80;8.67;;;9.40;99.90;;;;;;5066520;23;20265;-68
2022/10/13 06:16:24;;;;;;;15.80;7.37;;;9.50;99.90;;;;;;5066489;23;20174;-68
2022/10/13 06:18:24;;;;;;;17.97;9.47;;;9.60;99.90;;;;;;5066772;23;20658;-67
2022/10/13 06:20:29;;;;;;;9.37;4.87;;;9.60;99.90;;;;;;5065801;23;20202;-67
2022/10/13 06:22:29;;;;;;;12.03;6.80;;;9.60;99.90;;;;;;5066579;23;20171;-68
2022/10/13 06:24:30;;;;;;;17.77;8.13;;;9.60;99.90;;;;;;5067081;23;20671;-68
2022/10/13 06:26:31;;;;;;;15.93;8.60;;;9.60;99.90;;;;;;5067380;23;20205;-68
2022/10/13 06:28:31;;;;;;;15.67;7.83;;;9.60;99.90;;;;;;5066502;23;20162;-67
2022/10/13 06:30:32;;;;;;;15.03;8.10;;;9.70;99.90;;;;;;5065924;23;20718;-67
2022/10/13 06:32:32;;;;;;;22.63;10.27;;;9.70;99.90;;;;;;5066514;23;20544;-68
2022/10/13 06:34:33;;;;;;;8.90;5.17;;;9.70;99.90;;;;;;5066910;23;20244;-68
2022/10/13 06:36:33;;;;;;;7.10;3.53;;;9.90;99.90;;;;;;5066682;23;20168;-68
2022/10/13 06:38:34;;;;;;;5.30;3.27;;;9.80;99.90;;;;;;5066803;23;20157;-68
2022/10/13 06:40:36;;;;;;;4.77;2.80;;;9.70;99.90;;;;;;5066075;23;20665;-68
2022/10/13 06:42:37;;;;;;;4.37;3.27;;;9.60;99.90;;;;;;5066577;23;20161;-68
2022/10/13 06:44:37;;;;;;;4.13;3.50;;;9.50;99.90;;;;;;5066593;23;20268;-68
2022/10/13 06:46:38;;;;;;;3.40;2.80;;;9.60;99.90;;;;;;5066700;23;20185;-68
2022/10/13 06:48:38;;;;;;;4.37;3.27;;;9.70;99.90;;;;;;5066637;23;20173;-68
2022/10/13 06:50:39;;;;;;;4.97;3.27;;;9.90;99.90;;;;;;5065943;23;20607;-68
2022/10/13 06:52:40;;;;;;;4.30;3.60;;;9.90;99.90;;;;;;5066698;23;20166;-68
2022/10/13 06:54:40;;;;;;;5.07;3.20;;;9.90;99.90;;;;;;5066584;23;20675;-67
2022/10/13 06:56:41;;;;;;;3.67;3.00;;;10.10;99.90;;;;;;5066470;23;20173;-68
2022/10/13 06:58:41;;;;;;;3.97;2.80;;;10.20;99.90;;;;;;5031697;23;20519;-68
2022/10/13 07:00:42;;;;;;;3.53;2.53;;;10.40;99.90;;;;;;5062976;23;20263;-68
2022/10/13 07:02:43;;;;;;;5.43;3.60;;;10.40;99.90;;;;;;5065978;23;20166;-69
2022/10/13 07:04:45;;;;;;;5.33;3.47;;;10.60;99.90;;;;;;5039984;23;20617;-69
2022/10/13 07:06:46;;;;;;;4.20;3.33;;;10.50;99.90;;;;;;5066109;23;20178;-69
2022/10/13 07:08:47;;;;;;;4.77;3.63;;;10.60;99.90;;;;;;5065780;23;20166;-69
2022/10/13 07:10:47;;;;;;;5.20;3.13;;;10.70;99.90;;;;;;5065082;23;20162;-69
2022/10/13 07:12:48;;;;;;;5.40;3.00;;;10.70;99.90;;;;;;5066092;23;20169;-69
2022/10/13 07:14:48;;;;;;;4.33;3.67;;;10.70;99.90;;;;;;5065768;23;20211;-69
2022/10/13 07:16:49;;;;;;;4.00;3.40;;;10.90;99.90;;;;;;5065873;23;20158;-70
2022/10/13 07:18:50;;;;;;;6.87;3.17;;;11.20;99.90;;;;;;5065866;23;20169;-69
2022/10/13 07:20:50;;;;;;;3.50;2.77;;;11.40;99.90;;;;;;5064921;23;20161;-68
2022/10/13 07:22:53;;;;;;;5.03;3.23;;;11.50;99.90;;;;;;5065741;23;20162;-68
2022/10/13 07:24:54;;;;;;;3.93;3.00;;;11.40;99.90;;;;;;5065808;23;20727;-68
2022/10/13 07:26:55;;;;;;;3.50;2.57;;;11.50;99.90;;;;;;5065825;23;20169;-70
2022/10/13 07:28:55;;;;;;;4.33;3.20;;;11.60;99.90;;;;;;5065634;23;20545;-68
2022/10/13 07:30:56;;;;;;;4.70;3.10;;;11.40;99.90;;;;;;5065498;23;20162;-69
2022/10/13 07:32:57;;;;;;;5.33;3.70;;;11.50;99.90;;;;;;5067204;23;20620;-68
2022/10/13 07:34:57;;;;;;;4.40;3.23;;;11.30;99.90;;;;;;5067098;23;20303;-67
2022/10/13 07:36:58;;;;;;;4.93;2.93;;;11.10;99.90;;;;;;5067521;23;20531;-68
2022/10/13 07:39:00;;;;;;;4.10;2.60;;;11.20;99.90;;;;;;5067326;23;20186;-67
2022/10/13 07:41:02;;;;;;;3.53;3.00;;;11.60;99.90;;;;;;5066745;23;20170;-67
2022/10/13 07:43:02;;;;;;;6.47;3.30;;;11.80;99.90;;;;;;5067326;23;20169;-66
2022/10/13 07:45:03;;;;;;;4.97;2.80;;;11.80;99.90;;;;;;5067152;23;20579;-67
2022/10/13 07:47:04;;;;;;;4.43;2.77;;;11.90;99.90;;;;;;5067220;23;20162;-68
2022/10/13 07:49:04;;;;;;;5.57;3.00;;;11.70;99.90;;;;;;5066984;23;20162;-68
2022/10/13 07:51:11;;;;;;;5.17;3.50;;;11.50;99.90;;;;;;5066477;23;20604;-67
2022/10/13 07:53:11;;;;;;;3.93;2.70;;;11.50;99.90;;;;;;5065972;23;20146;-67
2022/10/13 07:55:12;;;;;;;3.70;3.07;;;11.70;99.90;;;;;;5067121;23;21012;-67
2022/10/13 07:57:14;;;;;;;4.07;3.50;;;11.70;99.90;;;;;;5067572;23;20499;-68
2022/10/13 07:59:14;;;;;;;7.63;4.10;;;11.60;99.90;;;;;;5067549;23;20170;-67
2022/10/13 08:01:16;;;;;;;5.97;4.50;;;11.60;99.90;;;;;;5066610;23;20158;-67
2022/10/13 08:03:16;;;;;;;4.07;3.13;;;11.50;99.90;;;;;;5067294;23;20163;-67
2022/10/13 08:05:17;;;;;;;3.27;2.73;;;11.60;99.90;;;;;;5067392;23;20210;-68
2022/10/13 08:07:17;;;;;;;3.93;3.03;;;11.70;99.90;;;;;;5067125;23;20644;-68
2022/10/13 08:09:18;;;;;;;4.80;2.90;;;11.70;99.90;;;;;;5067650;23;20647;-68
2022/10/13 08:11:19;;;;;;;5.43;2.70;;;11.80;99.90;;;;;;5067009;23;20204;-68
2022/10/13 08:13:20;;;;;;;4.93;3.00;;;12.10;99.90;;;;;;5067555;23;20178;-68
2022/10/13 08:15:20;;;;;;;3.87;2.60;;;12.00;99.90;;;;;;5042134;23;20275;-68
2022/10/13 08:17:21;;;;;;;5.70;3.13;;;12.20;99.90;;;;;;5067713;23;20194;-68
2022/10/13 08:19:22;;;;;;;4.47;2.70;;;12.40;99.90;;;;;;5067804;23;20222;-68
2022/10/13 08:21:22;;;;;;;3.77;2.97;;;12.50;99.90;;;;;;5067141;23;20238;-68
2022/10/13 08:23:23;;;;;;;4.97;2.83;;;12.30;99.90;;;;;;5067826;23;20159;-68
2022/10/13 08:25:23;;;;;;;5.13;3.27;;;12.30;99.90;;;;;;5067719;23;20216;-68
2022/10/13 08:27:24;;;;;;;4.30;2.73;;;12.00;99.90;;;;;;5067805;23;20675;-68
2022/10/13 08:29:25;;;;;;;4.83;2.70;;;12.10;99.90;;;;;;5041918;23;20163;-68
2022/10/13 08:31:25;;;;;;;3.20;2.50;;;12.40;99.90;;;;;;5066850;23;20506;-68
2022/10/13 08:33:26;;;;;;;5.33;2.87;;;12.80;99.90;;;;;;5067541;23;20537;-68
2022/10/13 08:35:27;;;;;;;3.10;2.10;;;13.10;99.90;;;;;;5067387;23;20627;-68
2022/10/13 08:37:27;;;;;;;4.27;2.87;;;13.20;99.00;;;;;;5067457;23;20189;-68
2022/10/13 08:39:28;;;;;;;4.67;2.80;;;12.80;99.70;;;;;;5067329;23;20191;-68
2022/10/13 08:41:47;;;;;;;7.23;2.60;;;12.80;99.90;;;;;;5066695;23;20158;-68
2022/10/13 08:43:51;;;;;;;3.70;2.60;;;13.00;99.90;;;;;;5066956;23;20146;-68
2022/10/13 08:45:58;;;;;;;3.87;2.60;;;13.40;98.70;;;;;;5067210;23;20189;-68
2022/10/13 08:48:21;;;;;;;4.70;3.33;;;13.30;99.50;;;;;;5067344;23;20214;-68
2022/10/13 08:50:24;;;;;;;3.47;2.80;;;13.30;99.60;;;;;;5066406;23;20232;-68
2022/10/13 08:52:28;;;;;;;4.47;2.90;;;13.60;98.70;;;;;;5067323;23;20162;-68
2022/10/13 08:54:29;;;;;;;3.20;2.50;;;13.60;98.70;;;;;;5041526;23;20199;-68
2022/10/13 08:56:33;;;;;;;4.00;2.80;;;13.80;98.00;;;;;;5067426;23;20696;-68
2022/10/13 08:58:37;;;;;;;4.70;2.60;;;14.10;98.10;;;;;;5067730;23;20199;-67
2022/10/13 09:00:38;;;;;;;4.43;2.93;;;14.30;96.50;;;;;;5066717;23;20217;-67
2022/10/13 09:02:40;;;;;;;5.10;2.97;;;14.40;96.70;;;;;;5067271;23;20162;-68
2022/10/13 09:04:46;;;;;;;7.17;2.80;;;14.20;97.60;;;;;;5041145;23;20202;-68
2022/10/13 09:06:53;;;;;;;4.80;3.00;;;14.30;97.90;;;;;;5067170;23;20147;-68
2022/10/13 09:09:01;;;;;;;5.57;3.20;;;14.40;96.80;;;;;;5067334;23;20151;-68
2022/10/13 09:11:02;;;;;;;5.90;3.30;;;14.60;97.20;;;;;;5040939;23;20659;-68
2022/10/13 09:13:03;;;;;;;4.13;3.40;;;14.80;95.60;;;;;;5067005;23;20155;-68
2022/10/13 09:15:10;;;;;;;7.33;3.30;;;14.60;96.20;;;;;;5067325;23;20179;-68
2022/10/13 09:17:25;;;;;;;7.70;3.67;;;14.50;97.00;;;;;;5041733;23;20170;-68
2022/10/13 09:19:35;;;;;;;7.27;4.30;;;14.70;97.10;;;;;;5067468;23;20597;-68
2022/10/13 09:21:35;;;;;;;7.33;4.07;;;14.90;97.30;;;;;;5042411;23;20194;-68
2022/10/13 09:23:37;;;;;;;13.70;4.37;;;15.00;95.50;;;;;;5066120;23;20186;-68
2022/10/13 09:25:44;;;;;;;6.57;4.37;;;14.50;96.70;;;;;;5067459;23;20183;-67
2022/10/13 09:27:50;;;;;;;6.53;4.40;;;14.40;97.50;;;;;;5041612;23;20147;-68
2022/10/13 09:29:52;;;;;;;7.40;4.60;;;14.40;97.50;;;;;;5067110;23;20989;-68
2022/10/13 09:32:20;;;;;;;12.93;4.60;;;14.40;98.30;;;;;;5040444;23;20186;-68
2022/10/13 09:34:21;;;;;;;8.07;5.00;;;14.50;97.40;;;;;;5042450;23;20253;-68
2022/10/13 09:36:21;;;;;;;8.37;5.00;;;14.30;97.90;;;;;;5017419;23;20255;-68
2022/10/13 09:38:24;;;;;;;9.37;5.13;;;13.90;99.60;;;;;;5042746;23;20159;-68
2022/10/13 09:40:29;;;;;;;9.50;5.63;;;13.80;99.80;;;;;;5041899;23;20159;-68
2022/10/13 09:42:30;;;;;;;9.03;5.47;;;13.70;99.90;;;;;;5042625;23;20159;-68
2022/10/13 09:44:31;;;;;;;8.90;5.67;;;13.70;99.90;;;;;;5042452;23;20601;-68
2022/10/13 09:46:36;;;;;;;7.07;5.27;;;13.70;99.90;;;;;;5042809;23;20167;-68
2022/10/13 09:48:41;;;;;;;9.67;5.57;;;13.80;99.90;;;;;;5042796;23;20151;-68
2022/10/13 09:50:48;;;;;;;10.33;5.93;;;14.00;99.30;;;;;;5041973;23;20167;-67
2022/10/13 09:52:49;;;;;;;10.23;5.40;;;13.80;99.90;;;;;;5042800;23;20598;-68
2022/10/13 09:54:59;;;;;;;11.93;6.13;;;13.90;99.90;;;;;;5042374;23;20246;-67
2022/10/13 09:57:33;;;;;;;11.47;6.13;;;13.90;99.90;;;;;;5042557;23;20663;-67
2022/10/13 09:59:39;;;;;;;9.87;5.70;;;14.10;99.90;;;;;;5042378;23;20143;-68
2022/10/13 10:01:44;;;;;;;11.40;5.50;;;14.60;98.60;;;;;;5016389;23;20168;-68
2022/10/13 10:03:48;;;;;;;10.60;5.73;;;14.60;97.00;;;;;;5042550;23;20165;-68
2022/10/13 10:05:54;;;;;;;12.10;5.30;;;14.40;98.80;;;;;;5042576;23;20684;-68
2022/10/13 10:08:37;;;;;;;10.47;6.30;;;14.50;98.70;;;;;;5017186;23;20210;-68
2022/10/13 10:10:39;;;;;;;8.70;5.87;;;14.60;97.60;;;;;;5041809;23;20170;-68
2022/10/13 10:12:42;;;;;;;9.83;6.00;;;14.40;98.30;;;;;;5042564;23;20246;-68
2022/10/13 10:14:43;;;;;;;9.57;6.70;;;14.60;98.00;;;;;;5017044;23;20767;-67
2022/10/13 10:16:52;;;;;;;11.03;6.53;;;14.60;97.70;;;;;;5041016;23;20230;-68
2022/10/13 10:19:44;;;;;;;11.07;6.30;;;14.70;97.80;;;;;;5042636;23;20154;-68
2022/10/13 10:22:03;;;;;;;8.40;5.80;;;15.20;96.00;;;;;;5015137;23;20174;-67
2022/10/13 10:24:28;;;;;;;10.57;5.53;;;15.00;96.30;;;;;;5042464;23;20628;-68
2022/10/13 10:27:03;;;;;;;10.37;6.07;;;15.10;97.10;;;;;;5043110;23;20151;-68
2022/10/13 10:29:23;;;;;;;8.80;6.23;;;14.90;96.90;;;;;;5016865;23;20512;-68
2022/10/13 10:31:53;;;;;;;11.10;6.73;;;15.40;96.60;;;;;;5041938;23;20161;-68
2022/10/13 10:34:15;;;;;;;12.43;6.27;;;15.60;95.10;;;;;;5063190;23;20198;-68
2022/10/13 10:36:40;;;;;;;11.53;6.30;;;15.70;94.60;;;;;;5040857;23;20190;-68
2022/10/13 10:38:52;;;;;;;9.60;6.17;;;15.70;94.20;;;;;;5066788;23;20146;-68